sensor_id;sensor_type;location;lat;lon;timestamp;pressure;altitude;pressure_sealevel;temperature;humidity
54122;BME280;40029;58.708;50.190;2023-02-13T04:29:29;99731.88;;;-4.43;45.31
54122;BME280;40029;58.708;50.190;2023-02-13T04:32:00;99724.91;;;-4.52;45.34
54122;BME280;40029;58.708;50.190;2023-02-13T04:34:31;99730.16;;;-4.44;45.60
54122;BME280;40029;58.708;50.190;2023-02-13T04:37:02;99724.25;;;-4.43;45.26
54122;BME280;40029;58.708;50.190;2023-02-13T04:42:38;99733.75;;;-4.34;44.92
54122;BME280;40029;58.708;50.190;2023-02-13T04:45:09;99742.56;;;-4.20;44.92
54122;BME280;40029;58.708;50.190;2023-02-13T04:47:40;99738.34;;;-4.16;44.45
54122;BME280;40029;58.708;50.190;2023-02-13T04:50:11;99733.19;;;-4.21;44.62
54122;BME280;40029;58.708;50.190;2023-02-13T04:52:42;99725.25;;;-4.36;44.87
54122;BME280;40029;58.708;50.190;2023-02-13T04:55:13;99742.50;;;-4.21;44.88
54122;BME280;40029;58.708;50.190;2023-02-13T04:57:44;99737.56;;;-4.14;45.07
54122;BME280;40029;58.708;50.190;2023-02-13T05:00:15;99727.28;;;-4.20;44.52
54122;BME280;40029;58.708;50.190;2023-02-13T05:02:46;99734.25;;;-4.11;44.51
54122;BME280;40029;58.708;50.190;2023-02-13T05:05:18;99737.06;;;-3.97;44.04
54122;BME280;40029;58.708;50.190;2023-02-13T05:07:49;99718.31;;;-4.03;44.46
54122;BME280;40029;58.708;50.190;2023-02-13T05:10:20;99726.78;;;-4.02;44.06
54122;BME280;40029;58.708;50.190;2023-02-13T05:12:51;99728.59;;;-3.96;44.31
54122;BME280;40029;58.708;50.190;2023-02-13T05:15:22;99721.81;;;-3.96;44.56
54122;BME280;40029;58.708;50.190;2023-02-13T05:17:53;99726.03;;;-3.96;44.09
54122;BME280;40029;58.708;50.190;2023-02-13T05:20:24;99723.66;;;-3.87;44.14
54122;BME280;40029;58.708;50.190;2023-02-13T05:22:55;99714.25;;;-3.91;43.99
54122;BME280;40029;58.708;50.190;2023-02-13T05:25:44;99673.28;;;-4.05;43.68
54122;BME280;40029;58.708;50.190;2023-02-13T05:28:16;99715.34;;;-3.79;43.98
54122;BME280;40029;58.708;50.190;2023-02-13T05:31:05;99712.88;;;-3.74;43.63
54122;BME280;40029;58.708;50.190;2023-02-13T05:33:36;99710.47;;;-3.69;43.27
54122;BME280;40029;58.708;50.190;2023-02-13T05:36:07;99673.66;;;-3.85;43.24
54122;BME280;40029;58.708;50.190;2023-02-13T05:38:38;99710.78;;;-3.51;42.94
54122;BME280;40029;58.708;50.190;2023-02-13T05:41:10;99703.13;;;-3.51;42.76
54122;BME280;40029;58.708;50.190;2023-02-13T05:43:43;99705.53;;;-3.59;43.15
54122;BME280;40029;58.708;50.190;2023-02-13T05:46:14;99648.78;;;-4.00;43.44
54122;BME280;40029;58.708;50.190;2023-02-13T05:48:45;99701.47;;;-3.49;42.62
54122;BME280;40029;58.708;50.190;2023-02-13T05:51:16;99701.34;;;-3.57;42.84
54122;BME280;40029;58.708;50.190;2023-02-13T05:53:47;99696.28;;;-3.54;42.97
54122;BME280;40029;58.708;50.190;2023-02-13T05:56:18;99696.63;;;-3.35;42.76
54122;BME280;40029;58.708;50.190;2023-02-13T05:58:53;99686.56;;;-3.26;42.33
54122;BME280;40029;58.708;50.190;2023-02-13T06:01:24;99678.09;;;-3.23;42.71
54122;BME280;40029;58.708;50.190;2023-02-13T06:03:55;99687.41;;;-3.27;42.55
54122;BME280;40029;58.708;50.190;2023-02-13T06:06:26;99691.22;;;-2.99;42.13
54122;BME280;40029;58.708;50.190;2023-02-13T06:08:57;99687.84;;;-2.98;41.75
54122;BME280;40029;58.708;50.190;2023-02-13T06:11:28;99692.16;;;-2.95;41.86
54122;BME280;40029;58.708;50.190;2023-02-13T06:13:59;99680.31;;;-2.90;41.49
54122;BME280;40029;58.708;50.190;2023-02-13T06:16:30;99686.97;;;-3.00;41.21
54122;BME280;40029;58.708;50.190;2023-02-13T06:19:01;99688.69;;;-3.00;41.56
54122;BME280;40029;58.708;50.190;2023-02-13T06:21:33;99670.75;;;-3.05;41.21
54122;BME280;40029;58.708;50.190;2023-02-13T06:24:08;99664.81;;;-3.06;41.65
54122;BME280;40029;58.708;50.190;2023-02-13T06:26:39;99602.91;;;-3.55;41.49
54122;BME280;40029;58.708;50.190;2023-02-13T06:29:10;99679.97;;;-3.13;41.53
54122;BME280;40029;58.708;50.190;2023-02-13T06:31:42;99638.94;;;-3.30;41.48
54122;BME280;40029;58.708;50.190;2023-02-13T06:34:13;99680.38;;;-2.86;41.68
54122;BME280;40029;58.708;50.190;2023-02-13T06:36:44;99670.22;;;-2.84;41.26
54122;BME280;40029;58.708;50.190;2023-02-13T06:39:15;99666.00;;;-2.82;41.28
54122;BME280;40029;58.708;50.190;2023-02-13T06:41:46;99671.09;;;-2.81;41.11
54122;BME280;40029;58.708;50.190;2023-02-13T06:44:17;99669.34;;;-2.86;41.20
54122;BME280;40029;58.708;50.190;2023-02-13T06:46:48;99670.13;;;-2.90;41.58
54122;BME280;40029;58.708;50.190;2023-02-13T06:49:19;99649.78;;;-2.87;41.07
54122;BME280;40029;58.708;50.190;2023-02-13T06:51:50;99665.44;;;-2.61;40.88
54122;BME280;40029;58.708;50.190;2023-02-13T06:54:21;99663.72;;;-2.61;40.54
54122;BME280;40029;58.708;50.190;2023-02-13T06:56:52;99670.47;;;-2.66;40.99
54122;BME280;40029;58.708;50.190;2023-02-13T06:59:23;99609.50;;;-3.11;41.48
54122;BME280;40029;58.708;50.190;2023-02-13T07:01:54;99576.97;;;-3.31;40.88
54122;BME280;40029;58.708;50.190;2023-02-13T07:04:26;99662.59;;;-2.81;41.07
54122;BME280;40029;58.708;50.190;2023-02-13T07:06:57;99648.19;;;-2.79;41.16
54122;BME280;40029;58.708;50.190;2023-02-13T07:09:30;99657.72;;;-2.64;40.97
54122;BME280;40029;58.708;50.190;2023-02-13T07:12:03;99665.50;;;-2.55;40.76
54122;BME280;40029;58.708;50.190;2023-02-13T07:14:34;99650.84;;;-2.71;40.40
54122;BME280;40029;58.708;50.190;2023-02-13T07:17:05;99663.56;;;-2.74;41.29
54122;BME280;40029;58.708;50.190;2023-02-13T07:19:36;99648.03;;;-2.91;41.07
54122;BME280;40029;58.708;50.190;2023-02-13T07:22:07;99653.25;;;-2.81;41.30
54122;BME280;40029;58.708;50.190;2023-02-13T07:24:38;99641.63;;;-2.60;41.15
54122;BME280;40029;58.708;50.190;2023-02-13T07:27:09;99640.09;;;-2.47;40.79
54122;BME280;40029;58.708;50.190;2023-02-13T07:29:40;99649.38;;;-2.54;40.89
54122;BME280;40029;58.708;50.190;2023-02-13T07:32:11;99647.69;;;-2.52;40.84
54122;BME280;40029;58.708;50.190;2023-02-13T07:34:42;99659.19;;;-2.15;40.03
54122;BME280;40029;58.708;50.190;2023-02-13T07:37:13;99642.94;;;-2.21;40.09
54122;BME280;40029;58.708;50.190;2023-02-13T07:39:44;99634.38;;;-2.27;39.81
54122;BME280;40029;58.708;50.190;2023-02-13T07:42:15;99636.88;;;-2.33;40.32
54122;BME280;40029;58.708;50.190;2023-02-13T07:44:46;99628.69;;;-2.03;40.01
54122;BME280;40029;58.708;50.190;2023-02-13T07:47:17;99641.25;;;-2.21;40.60
54122;BME280;40029;58.708;50.190;2023-02-13T07:49:48;99630.50;;;-1.92;40.17
54122;BME280;40029;58.708;50.190;2023-02-13T07:52:19;99633.91;;;-1.95;39.69
54122;BME280;40029;58.708;50.190;2023-02-13T07:54:50;99631.56;;;-1.70;39.72
54122;BME280;40029;58.708;50.190;2023-02-13T07:57:21;99629.97;;;-1.58;39.50
54122;BME280;40029;58.708;50.190;2023-02-13T07:59:52;99632.47;;;-1.65;39.54
54122;BME280;40029;58.708;50.190;2023-02-13T08:02:23;99626.44;;;-1.73;39.26
54122;BME280;40029;58.708;50.190;2023-02-13T08:04:54;99609.41;;;-1.73;39.57
54122;BME280;40029;58.708;50.190;2023-02-13T08:07:25;99616.44;;;-1.47;39.32
54122;BME280;40029;58.708;50.190;2023-02-13T08:09:56;99619.06;;;-1.38;38.92
54122;BME280;40029;58.708;50.190;2023-02-13T08:12:46;99614.88;;;-1.29;38.66
54122;BME280;40029;58.708;50.190;2023-02-13T08:15:17;99603.50;;;-1.67;39.37
54122;BME280;40029;58.708;50.190;2023-02-13T08:17:48;99565.28;;;-1.57;39.00
54122;BME280;40029;58.708;50.190;2023-02-13T08:20:19;99602.91;;;-1.33;39.08
54122;BME280;40029;58.708;50.190;2023-02-13T08:22:50;99602.19;;;-1.18;39.33
54122;BME280;40029;58.708;50.190;2023-02-13T08:25:21;99574.09;;;-1.10;38.76
54122;BME280;40029;58.708;50.190;2023-02-13T08:27:52;99564.69;;;-1.19;38.64
54122;BME280;40029;58.708;50.190;2023-02-13T08:30:23;99550.22;;;-1.12;38.73
54122;BME280;40029;58.708;50.190;2023-02-13T08:32:54;99580.25;;;-0.73;38.66
54122;BME280;40029;58.708;50.190;2023-02-13T08:35:25;99543.53;;;-0.89;37.75
54122;BME280;40029;58.708;50.190;2023-02-13T08:38:03;99583.72;;;-0.62;38.05
54122;BME280;40029;58.708;50.190;2023-02-13T08:40:34;99567.53;;;-0.52;38.12
54122;BME280;40029;58.708;50.190;2023-02-13T08:43:05;99565.03;;;-0.42;37.94
54122;BME280;40029;58.708;50.190;2023-02-13T08:45:36;99555.56;;;-0.66;37.53
54122;BME280;40029;58.708;50.190;2023-02-13T08:48:07;99562.31;;;-0.81;37.53
54122;BME280;40029;58.708;50.190;2023-02-13T08:50:38;99525.66;;;-0.78;37.52
54122;BME280;40029;58.708;50.190;2023-02-13T08:53:09;99550.50;;;-0.46;37.24
54122;BME280;40029;58.708;50.190;2023-02-13T08:55:40;99558.16;;;-0.53;37.48
54122;BME280;40029;58.708;50.190;2023-02-13T08:58:11;99562.41;;;-0.62;37.14
54122;BME280;40029;58.708;50.190;2023-02-13T09:00:43;99552.16;;;-0.61;37.10
54122;BME280;40029;58.708;50.190;2023-02-13T09:03:14;99558.03;;;-0.83;37.82
54122;BME280;40029;58.708;50.190;2023-02-13T09:05:45;99553.00;;;-0.66;38.39
54122;BME280;40029;58.708;50.190;2023-02-13T09:08:17;99554.69;;;-0.65;37.74
54122;BME280;40029;58.708;50.190;2023-02-13T09:10:55;99549.63;;;-0.52;37.29
54122;BME280;40029;58.708;50.190;2023-02-13T09:13:30;99545.31;;;-0.69;37.93
54122;BME280;40029;58.708;50.190;2023-02-13T09:16:05;99501.56;;;-1.29;38.42
54122;BME280;40029;58.708;50.190;2023-02-13T09:18:36;99491.50;;;-0.94;38.37
54122;BME280;40029;58.708;50.190;2023-02-13T09:21:10;99486.47;;;-0.76;37.33
54122;BME280;40029;58.708;50.190;2023-02-13T09:23:42;99529.16;;;-0.59;36.97
54122;BME280;40029;58.708;50.190;2023-02-13T09:26:14;99528.22;;;-0.77;37.24
54122;BME280;40029;58.708;50.190;2023-02-13T09:28:45;99489.81;;;-0.89;38.01
54122;BME280;40029;58.708;50.190;2023-02-13T09:31:19;99530.81;;;-0.69;38.06
54122;BME280;40029;58.708;50.190;2023-02-13T09:33:50;99516.38;;;-0.53;37.52
54122;BME280;40029;58.708;50.190;2023-02-13T09:36:23;99517.97;;;-0.77;37.01
54122;BME280;40029;58.708;50.190;2023-02-13T09:38:55;99517.94;;;-0.86;37.56
54122;BME280;40029;58.708;50.190;2023-02-13T09:41:29;99520.53;;;-0.84;37.89
54122;BME280;40029;58.708;50.190;2023-02-13T09:46:41;99515.34;;;-0.95;38.12
54122;BME280;40029;58.708;50.190;2023-02-13T09:49:17;99512.75;;;-1.07;38.45
54122;BME280;40029;58.708;50.190;2023-02-13T09:51:54;99504.19;;;-1.12;37.54
54122;BME280;40029;58.708;50.190;2023-02-13T09:54:26;99510.09;;;-1.24;38.08
54122;BME280;40029;58.708;50.190;2023-02-13T10:16:59;99504.19;;;-1.17;37.48
54122;BME280;40029;58.708;50.190;2023-02-13T10:19:39;99500.78;;;-1.17;37.41
54122;BME280;40029;58.708;50.190;2023-02-13T10:27:34;99482.09;;;-0.99;37.39
54122;BME280;40029;58.708;50.190;2023-02-13T10:30:30;99494.09;;;-0.85;37.98
54122;BME280;40029;58.708;50.190;2023-02-13T10:33:08;99471.06;;;-0.82;37.58
54122;BME280;40029;58.708;50.190;2023-02-13T10:35:59;99482.22;;;-0.60;37.15
54122;BME280;40029;58.708;50.190;2023-02-13T10:38:33;99469.47;;;-0.51;37.02
54122;BME280;40029;58.708;50.190;2023-02-13T11:04:18;99454.03;;;-0.80;38.36
54122;BME280;40029;58.708;50.190;2023-02-13T11:06:58;99470.19;;;-0.93;38.08
54122;BME280;40029;58.708;50.190;2023-02-13T11:09:36;99396.78;;;-1.24;38.06
54122;BME280;40029;58.708;50.190;2023-02-13T11:12:25;99452.31;;;-0.88;38.35
54122;BME280;40029;58.708;50.190;2023-02-13T11:17:33;99455.56;;;-1.24;38.72
54122;BME280;40029;58.708;50.190;2023-02-13T11:21:05;99369.38;;;-1.70;39.31
54122;BME280;40029;58.708;50.190;2023-02-13T11:26:06;99446.22;;;-1.19;39.42
54122;BME280;40029;58.708;50.190;2023-02-13T11:28:47;99451.28;;;-1.29;39.62
54122;BME280;40029;58.708;50.190;2023-02-13T11:31:27;99444.53;;;-1.17;39.06
54122;BME280;40029;58.708;50.190;2023-02-13T11:34:25;99434.19;;;-1.48;40.57
54122;BME280;40029;58.708;50.190;2023-02-13T11:39:44;99444.41;;;-1.42;40.16
54122;BME280;40029;58.708;50.190;2023-02-13T11:42:34;99359.97;;;-1.74;39.82
54122;BME280;40029;58.708;50.190;2023-02-13T11:45:19;99431.72;;;-1.20;40.29
54122;BME280;40029;58.708;50.190;2023-02-13T11:47:53;99429.16;;;-1.30;39.96
54122;BME280;40029;58.708;50.190;2023-02-13T11:50:32;99432.53;;;-1.34;40.49
54122;BME280;40029;58.708;50.190;2023-02-13T11:53:17;99434.25;;;-1.36;40.13
54122;BME280;40029;58.708;50.190;2023-02-13T11:56:10;99418.94;;;-1.25;40.25
54122;BME280;40029;58.708;50.190;2023-02-13T11:58:41;99418.06;;;-1.29;40.08
54122;BME280;40029;58.708;50.190;2023-02-13T12:04:06;99420.56;;;-1.45;40.35
54122;BME280;40029;58.708;50.190;2023-02-13T12:09:32;99396.78;;;-1.28;39.43
54122;BME280;40029;58.708;50.190;2023-02-13T12:12:03;99404.38;;;-1.41;39.83
54122;BME280;40029;58.708;50.190;2023-02-13T12:14:41;99388.22;;;-1.33;39.74
54122;BME280;40029;58.708;50.190;2023-02-13T12:17:19;99394.19;;;-1.32;39.36
54122;BME280;40029;58.708;50.190;2023-02-13T12:19:52;99388.16;;;-1.49;39.64
54122;BME280;40029;58.708;50.190;2023-02-13T12:36:32;99370.16;;;-1.80;40.16
54122;BME280;40029;58.708;50.190;2023-02-13T12:39:24;99359.94;;;-1.82;40.81
54122;BME280;40029;58.708;50.190;2023-02-13T12:45:01;99323.28;;;-1.93;40.85
54122;BME280;40029;58.708;50.190;2023-02-13T12:54:03;99345.44;;;-1.83;40.92
54122;BME280;40029;58.708;50.190;2023-02-13T12:56:58;99343.75;;;-1.85;40.92
54122;BME280;40029;58.708;50.190;2023-02-13T13:05:31;99347.00;;;-2.12;41.67
54122;BME280;40029;58.708;50.190;2023-02-13T13:08:30;99342.50;;;-2.42;42.69
54122;BME280;40029;58.708;50.190;2023-02-13T13:11:33;99361.28;;;-2.37;42.81
54122;BME280;40029;58.708;50.190;2023-02-13T13:20:25;99352.81;;;-2.33;43.10
54122;BME280;40029;58.708;50.190;2023-02-13T13:23:12;99354.50;;;-2.31;42.72
54122;BME280;40029;58.708;50.190;2023-02-13T13:26:00;99340.88;;;-2.34;42.54
54122;BME280;40029;58.708;50.190;2023-02-13T13:28:37;99315.28;;;-2.46;43.19
54122;BME280;40029;58.708;50.190;2023-02-13T13:31:11;99342.59;;;-2.38;42.87
54122;BME280;40029;58.708;50.190;2023-02-13T13:33:44;99340.88;;;-2.37;43.00
54122;BME280;40029;58.708;50.190;2023-02-13T13:39:05;99335.88;;;-2.25;42.85
54122;BME280;40029;58.708;50.190;2023-02-13T13:44:47;99339.22;;;-2.31;42.98
54122;BME280;40029;58.708;50.190;2023-02-13T13:47:46;99345.88;;;-2.49;43.82
54122;BME280;40029;58.708;50.190;2023-02-13T13:50:24;99340.84;;;-2.42;43.29
54122;BME280;40029;58.708;50.190;2023-02-13T13:53:14;99342.31;;;-2.68;43.65
54122;BME280;40029;58.708;50.190;2023-02-13T13:58:21;99332.16;;;-2.67;43.71
54122;BME280;40029;58.708;50.190;2023-02-13T14:01:22;99330.41;;;-2.68;43.88
54122;BME280;40029;58.708;50.190;2023-02-13T14:04:36;99322.69;;;-2.77;43.54
54122;BME280;40029;58.708;50.190;2023-02-13T14:11:56;99312.38;;;-2.91;43.67
54122;BME280;40029;58.708;50.190;2023-02-13T14:17:12;99326.91;;;-2.84;43.84
54122;BME280;40029;58.708;50.190;2023-02-13T14:19:50;99274.78;;;-3.18;43.35
54122;BME280;40029;58.708;50.190;2023-02-13T14:22:31;99323.44;;;-2.90;43.87
54122;BME280;40029;58.708;50.190;2023-02-13T14:25:05;99319.34;;;-2.73;43.37
54122;BME280;40029;58.708;50.190;2023-02-13T14:27:38;99325.94;;;-2.95;43.92
54122;BME280;40029;58.708;50.190;2023-02-13T14:30:27;99328.47;;;-2.99;44.07
54122;BME280;40029;58.708;50.190;2023-02-13T14:33:02;99325.41;;;-2.56;42.63
54122;BME280;40029;58.708;50.190;2023-02-13T14:35:36;99312.66;;;-2.57;42.50
54122;BME280;40029;58.708;50.190;2023-02-13T14:38:21;99309.22;;;-2.59;42.93
54122;BME280;40029;58.708;50.190;2023-02-13T14:40:53;99276.94;;;-2.63;42.16
54122;BME280;40029;58.708;50.190;2023-02-13T14:49:01;99322.19;;;-2.33;41.91
54122;BME280;40029;58.708;50.190;2023-02-13T14:51:39;99312.72;;;-2.48;41.70
54122;BME280;40029;58.708;50.190;2023-02-13T14:54:33;99312.66;;;-2.56;42.22
54122;BME280;40029;58.708;50.190;2023-02-13T14:59:55;99268.28;;;-2.84;42.15
54122;BME280;40029;58.708;50.190;2023-02-13T15:02:35;99320.81;;;-3.01;42.99
54122;BME280;40029;58.708;50.190;2023-02-13T15:05:13;99322.81;;;-2.66;42.33
54122;BME280;40029;58.708;50.190;2023-02-13T15:10:57;99314.22;;;-2.74;42.20
54122;BME280;40029;58.708;50.190;2023-02-13T15:13:33;99316.00;;;-2.67;42.02
54122;BME280;40029;58.708;50.190;2023-02-13T15:16:08;99286.97;;;-2.82;42.04
54122;BME280;40029;58.708;50.190;2023-02-13T15:18:41;99327.06;;;-2.65;41.92
54122;BME280;40029;58.708;50.190;2023-02-13T15:21:19;99317.81;;;-2.46;41.62
54122;BME280;40029;58.708;50.190;2023-02-13T15:23:55;99325.28;;;-2.72;42.10
54122;BME280;40029;58.708;50.190;2023-02-13T15:26:26;99310.03;;;-2.69;41.83
54122;BME280;40029;58.708;50.190;2023-02-13T15:29:18;99314.28;;;-2.68;41.91
54122;BME280;40029;58.708;50.190;2023-02-13T15:31:50;99306.53;;;-2.81;42.15
54122;BME280;40029;58.708;50.190;2023-02-13T15:34:22;99316.78;;;-2.73;41.56
54122;BME280;40029;58.708;50.190;2023-02-13T15:36:54;99297.09;;;-2.91;42.20
54122;BME280;40029;58.708;50.190;2023-02-13T15:39:28;99298.19;;;-2.60;41.77
54122;BME280;40029;58.708;50.190;2023-02-13T15:42:03;99285.31;;;-2.78;41.57
54122;BME280;40029;58.708;50.190;2023-02-13T15:44:36;99294.00;;;-2.53;41.42
54122;BME280;40029;58.708;50.190;2023-02-13T15:47:16;99290.63;;;-2.49;41.56
54122;BME280;40029;58.708;50.190;2023-02-13T15:49:47;99291.31;;;-2.68;41.14
54122;BME280;40029;58.708;50.190;2023-02-13T15:54:57;99298.25;;;-2.54;41.18
54122;BME280;40029;58.708;50.190;2023-02-13T15:57:28;99291.38;;;-2.59;41.29
54122;BME280;40029;58.708;50.190;2023-02-13T16:00:00;99292.25;;;-2.57;40.90
54122;BME280;40029;58.708;50.190;2023-02-13T16:02:45;99293.94;;;-2.61;41.60
54122;BME280;40029;58.708;50.190;2023-02-13T16:05:17;99284.50;;;-2.74;41.68
54122;BME280;40029;58.708;50.190;2023-02-13T16:07:54;99282.91;;;-2.55;41.00
54122;BME280;40029;58.708;50.190;2023-02-13T16:10:34;99288.09;;;-2.46;40.93
54122;BME280;40029;58.708;50.190;2023-02-13T16:13:06;99291.13;;;-2.96;41.96
54122;BME280;40029;58.708;50.190;2023-02-13T16:15:46;99282.63;;;-2.95;41.97
54122;BME280;40029;58.708;50.190;2023-02-13T16:18:18;99288.56;;;-2.96;41.86
54122;BME280;40029;58.708;50.190;2023-02-13T16:20:54;99248.28;;;-3.37;42.58
54122;BME280;40029;58.708;50.190;2023-02-13T16:23:25;99241.31;;;-3.55;43.18
54122;BME280;40029;58.708;50.190;2023-02-13T16:26:02;99268.75;;;-3.26;42.78
54122;BME280;40029;58.708;50.190;2023-02-13T16:28:35;99274.59;;;-3.38;43.40
54122;BME280;40029;58.708;50.190;2023-02-13T16:31:15;99262.63;;;-3.46;43.53
54122;BME280;40029;58.708;50.190;2023-02-13T16:33:46;99269.56;;;-3.30;43.58
54122;BME280;40029;58.708;50.190;2023-02-13T16:36:25;99272.09;;;-3.32;43.55
54122;BME280;40029;58.708;50.190;2023-02-13T16:39:10;99272.16;;;-3.25;43.52
54122;BME280;40029;58.708;50.190;2023-02-13T16:41:41;99267.91;;;-3.23;43.40
54122;BME280;40029;58.708;50.190;2023-02-13T16:44:25;99279.94;;;-3.10;42.81
54122;BME280;40029;58.708;50.190;2023-02-13T16:47:04;99269.69;;;-3.16;42.84
54122;BME280;40029;58.708;50.190;2023-02-13T16:49:36;99271.22;;;-3.35;43.41
54122;BME280;40029;58.708;50.190;2023-02-13T16:52:10;99267.91;;;-3.23;43.37
54122;BME280;40029;58.708;50.190;2023-02-13T16:54:50;99262.91;;;-3.17;43.31
54122;BME280;40029;58.708;50.190;2023-02-13T16:57:29;99249.34;;;-3.10;43.07
54122;BME280;40029;58.708;50.190;2023-02-13T17:00:03;99250.19;;;-3.11;43.22
54122;BME280;40029;58.708;50.190;2023-02-13T17:02:37;99246.88;;;-3.03;42.96
54122;BME280;40029;58.708;50.190;2023-02-13T17:07:49;99246.06;;;-3.00;43.10
54122;BME280;40029;58.708;50.190;2023-02-13T17:10:32;99245.91;;;-3.17;43.34
54122;BME280;40029;58.708;50.190;2023-02-13T17:13:16;99234.78;;;-3.27;43.55
54122;BME280;40029;58.708;50.190;2023-02-13T17:15:48;99203.31;;;-3.32;42.67
54122;BME280;40029;58.708;50.190;2023-02-13T17:18:21;99245.03;;;-3.20;43.72
54122;BME280;40029;58.708;50.190;2023-02-13T17:20:52;99249.34;;;-3.13;43.19
54122;BME280;40029;58.708;50.190;2023-02-13T17:23:24;99239.13;;;-3.18;43.56
54122;BME280;40029;58.708;50.190;2023-02-13T17:25:55;99197.25;;;-3.47;43.50
54122;BME280;40029;58.708;50.190;2023-02-13T17:28:26;99204.78;;;-3.58;44.23
54122;BME280;40029;58.708;50.190;2023-02-13T17:31:00;99190.44;;;-3.50;43.92
54122;BME280;40029;58.708;50.190;2023-02-13T17:33:31;99230.44;;;-3.40;43.93
54122;BME280;40029;58.708;50.190;2023-02-13T17:36:09;99216.84;;;-3.39;43.92
54122;BME280;40029;58.708;50.190;2023-02-13T17:38:41;99217.72;;;-3.37;44.28
54122;BME280;40029;58.708;50.190;2023-02-13T17:41:14;99227.19;;;-3.19;43.63
54122;BME280;40029;58.708;50.190;2023-02-13T17:43:45;99196.28;;;-3.57;44.58
54122;BME280;40029;58.708;50.190;2023-02-13T17:46:16;99222.03;;;-3.31;44.25
54122;BME280;40029;58.708;50.190;2023-02-13T17:48:47;99141.03;;;-3.69;43.87
54122;BME280;40029;58.708;50.190;2023-02-13T17:51:18;99173.47;;;-3.48;43.63
54122;BME280;40029;58.708;50.190;2023-02-13T17:53:49;99218.81;;;-3.09;43.45
54122;BME280;40029;58.708;50.190;2023-02-13T17:56:20;99218.69;;;-3.19;43.94
54122;BME280;40029;58.708;50.190;2023-02-13T17:58:51;99226.31;;;-3.25;43.96
54122;BME280;40029;58.708;50.190;2023-02-13T18:01:22;99223.13;;;-3.02;43.46
54122;BME280;40029;58.708;50.190;2023-02-13T18:03:53;99233.25;;;-3.09;44.05
54122;BME280;40029;58.708;50.190;2023-02-13T18:06:25;99220.56;;;-3.00;43.60
54122;BME280;40029;58.708;50.190;2023-02-13T18:08:55;99179.53;;;-3.34;43.55
54122;BME280;40029;58.708;50.190;2023-02-13T18:11:26;99202.66;;;-3.09;43.39
54122;BME280;40029;58.708;50.190;2023-02-13T18:13:57;99211.22;;;-2.98;43.58
54122;BME280;40029;58.708;50.190;2023-02-13T18:16:29;99218.03;;;-3.02;43.41
54122;BME280;40029;58.708;50.190;2023-02-13T18:19:01;99182.13;;;-3.28;44.01
54122;BME280;40029;58.708;50.190;2023-02-13T18:21:32;99194.03;;;-3.25;44.00
54122;BME280;40029;58.708;50.190;2023-02-13T18:24:03;99194.81;;;-3.32;44.72
54122;BME280;40029;58.708;50.190;2023-02-13T18:26:34;99206.00;;;-3.15;44.52
54122;BME280;40029;58.708;50.190;2023-02-13T18:29:05;99190.81;;;-3.04;43.93
54122;BME280;40029;58.708;50.190;2023-02-13T18:31:36;99178.88;;;-3.07;44.07
54122;BME280;40029;58.708;50.190;2023-02-13T18:34:08;99196.91;;;-2.84;43.97
54122;BME280;40029;58.708;50.190;2023-02-13T18:36:39;99180.63;;;-2.98;43.93
54122;BME280;40029;58.708;50.190;2023-02-13T18:39:10;99193.53;;;-2.77;43.32
54122;BME280;40029;58.708;50.190;2023-02-13T18:41:41;99191.81;;;-2.84;43.52
54122;BME280;40029;58.708;50.190;2023-02-13T18:44:12;99187.50;;;-2.91;43.93
54122;BME280;40029;58.708;50.190;2023-02-13T18:46:43;99183.19;;;-2.98;43.78
54122;BME280;40029;58.708;50.190;2023-02-13T18:49:14;99148.28;;;-3.14;43.68
54122;BME280;40029;58.708;50.190;2023-02-13T18:51:45;99200.25;;;-2.85;43.52
54122;BME280;40029;58.708;50.190;2023-02-13T18:54:17;99185.06;;;-2.75;44.14
54122;BME280;40029;58.708;50.190;2023-02-13T18:56:48;99193.47;;;-2.89;44.31
54122;BME280;40029;58.708;50.190;2023-02-13T18:59:19;99186.69;;;-2.88;43.91
54122;BME280;40029;58.708;50.190;2023-02-13T19:01:50;99183.31;;;-2.80;44.00
54122;BME280;40029;58.708;50.190;2023-02-13T19:04:21;99190.16;;;-2.74;44.01
54122;BME280;40029;58.708;50.190;2023-02-13T19:06:52;99136.50;;;-2.95;43.77
54122;BME280;40029;58.708;50.190;2023-02-13T19:09:23;99188.38;;;-2.86;44.27
54122;BME280;40029;58.708;50.190;2023-02-13T19:11:54;99144.78;;;-3.25;44.67
54122;BME280;40029;58.708;50.190;2023-02-13T19:14:25;99173.97;;;-2.79;43.93
54122;BME280;40029;58.708;50.190;2023-02-13T19:16:58;99185.91;;;-2.75;44.34
54122;BME280;40029;58.708;50.190;2023-02-13T19:19:29;99186.81;;;-2.65;43.82
54122;BME280;40029;58.708;50.190;2023-02-13T19:22:00;99172.38;;;-2.60;43.55
54122;BME280;40029;58.708;50.190;2023-02-13T19:24:31;99168.16;;;-2.58;43.54
54122;BME280;40029;58.708;50.190;2023-02-13T19:27:02;99162.19;;;-2.57;43.78
54122;BME280;40029;58.708;50.190;2023-02-13T19:29:33;99151.06;;;-2.68;44.04
54122;BME280;40029;58.708;50.190;2023-02-13T19:32:04;99136.53;;;-2.91;43.88
54122;BME280;40029;58.708;50.190;2023-02-13T19:34:35;99169.75;;;-2.74;44.28
54122;BME280;40029;58.708;50.190;2023-02-13T19:37:06;99168.84;;;-2.88;44.17
54122;BME280;40029;58.708;50.190;2023-02-13T19:39:37;99173.13;;;-2.77;43.99
54122;BME280;40029;58.708;50.190;2023-02-13T19:42:08;99177.47;;;-2.62;43.72
54122;BME280;40029;58.708;50.190;2023-02-13T19:44:39;99166.31;;;-2.81;44.22
54122;BME280;40029;58.708;50.190;2023-02-13T19:47:10;99176.59;;;-2.71;44.19
54122;BME280;40029;58.708;50.190;2023-02-13T19:49:41;99180.84;;;-2.67;43.67
54122;BME280;40029;58.708;50.190;2023-02-13T19:52:13;99169.84;;;-2.63;44.01
